»·PEaware :: BRAVE16 KEND-KEND

BRAVE16 :: KEND-KEND

FLIGHT INFORMATION

Flight Status: Arrived
Operator: Unknown
More flights by this operator :: More flights under this callsign
Pilot: Godfrey B. (21984)
Aircraft: BEECH AIRCRAFT T-6A TEXAN
(TEX2)
More flights by this aircraft type
Origin: KEND Vance AFB
United States
Destination: KEND Vance AFB
United States
More flights between these airports :: More routes between these airports
Route: +PLANS AVK
File this flight plan on PilotEdge
Remarks:
Altitude:
(Current/Filed)
0ft
Speed:
(Current/Filed)
0kts
Departed: 26-Mar-20 07:20 AM
Arrived: 26-Mar-20 08:10 AM
Distance/Time
Traveled:
1nm/0:50
Distance/Time
To Go:
Arrived

Flight Plot

Page will automatically refresh every two minutes.


Map Options




Map Legend


Flown Route
Filed Route
Departure Airport
Arrival Airport
Navaid (VOR, NDB)
Fix

Horizontal Profiles

Position Reports

Time Latitude Longitude Heading Altitude Ground
Speed
26-Mar-20 07:13 36.346858 -97.909794 292 1279ft 0kts
26-Mar-20 07:14 36.346858 -97.909794 292 1279ft 0kts
26-Mar-20 07:15 36.346858 -97.909794 292 1279ft 0kts
26-Mar-20 07:17 36.346858 -97.909794 292 1279ft 0kts
26-Mar-20 07:18 36.346858 -97.909794 292 1279ft 0kts
26-Mar-20 07:19 36.346858 -97.909794 292 1279ft 0kts
26-Mar-20 07:20 36.342942 -97.911062 180 1285ft 97kts
26-Mar-20 07:21 36.298426 -97.912739 183 3203ft 174kts
26-Mar-20 07:22 36.245174 -97.908868 180 5104ft 232kts
26-Mar-20 07:23 36.254098 -97.835833 69 4985ft 248kts
26-Mar-20 07:24 36.280139 -97.760047 64 5162ft 231kts
26-Mar-20 07:25 36.308722 -97.683515 61 5092ft 268kts
26-Mar-20 07:26 36.357933 -97.614979 45 5552ft 260kts
26-Mar-20 07:27 36.404928 -97.548411 47 5492ft 264kts
26-Mar-20 07:28 36.454425 -97.482190 46 5530ft 261kts
26-Mar-20 07:29 36.504184 -97.417252 45 5513ft 262kts
26-Mar-20 07:30 36.552061 -97.349946 53 5534ft 258kts
26-Mar-20 07:31 36.599814 -97.282934 51 5502ft 255kts
26-Mar-20 07:32 36.645973 -97.215996 48 5425ft 250kts
26-Mar-20 07:33 36.693053 -97.155522 39 4029ft 231kts
26-Mar-20 07:34 36.741744 -97.117669 3 2465ft 142kts
26-Mar-20 07:34 36.747415 -97.099661 180 1155ft 118kts
26-Mar-20 07:36 36.729104 -97.100724 249 1002ft 5kts
26-Mar-20 07:37 36.728563 -97.101556 178 1000ft 0kts
26-Mar-20 07:38 36.728563 -97.101556 178 1000ft 0kts
26-Mar-20 07:38 36.728411 -97.101181 90 1001ft 9kts
26-Mar-20 07:39 36.734724 -97.100982 357 1005ft 19kts
26-Mar-20 07:40 36.739101 -97.100983 350 990ft 0kts
26-Mar-20 07:41 36.739115 -97.100984 3 990ft 0kts
26-Mar-20 07:43 36.739143 -97.100980 6 990ft 0kts
26-Mar-20 07:43 36.741411 -97.100970 13 992ft 10kts
26-Mar-20 07:44 36.741215 -97.099641 167 996ft 35kts
26-Mar-20 07:45 36.709936 -97.108838 260 2547ft 166kts
26-Mar-20 07:46 36.703325 -97.170197 267 4428ft 208kts
26-Mar-20 07:47 36.694863 -97.247569 223 3493ft 241kts
26-Mar-20 07:48 36.676166 -97.257859 221 4182ft 218kts
26-Mar-20 07:49 36.612242 -97.267177 181 4537ft 253kts
26-Mar-20 07:50 36.547755 -97.263305 187 3451ft 206kts
26-Mar-20 07:51 36.492344 -97.270892 191 3427ft 190kts
26-Mar-20 07:52 36.440481 -97.276361 182 2353ft 186kts
26-Mar-20 07:53 36.400280 -97.277278 179 1193ft 130kts
26-Mar-20 07:54 36.367479 -97.277123 181 1842ft 156kts
26-Mar-20 07:55 36.350243 -97.330114 250 4370ft 188kts
26-Mar-20 07:56 36.335984 -97.402682 276 4633ft 231kts
26-Mar-20 07:57 36.343130 -97.480567 281 5284ft 223kts
26-Mar-20 07:58 36.360798 -97.559073 287 6134ft 243kts
26-Mar-20 07:59 36.374300 -97.640016 274 6222ft 245kts
26-Mar-20 08:00 36.386817 -97.720660 292 6133ft 231kts
26-Mar-20 08:01 36.432064 -97.768173 329 6129ft 220kts
26-Mar-20 08:02 36.485836 -97.802346 311 3232ft 220kts
26-Mar-20 08:03 36.492839 -97.866246 236 2764ft 186kts
26-Mar-20 08:04 36.453503 -97.908051 177 2354ft 202kts
26-Mar-20 08:05 36.395661 -97.907585 183 2301ft 212kts
26-Mar-20 08:06 36.337947 -97.908582 120 2187ft 215kts
26-Mar-20 08:07 36.372470 -97.910546 225 1898ft 148kts
26-Mar-20 08:08 36.340173 -97.910972 180 1285ft 70kts
26-Mar-20 08:09 36.333911 -97.909789 74 1291ft 3kts
26-Mar-20 08:10 36.334487 -97.909155 41 1292ft 4kts
26-Mar-20 08:11 36.334844 -97.909049 342 1293ft 1kts
26-Mar-20 08:12 36.334936 -97.909371 213 1293ft 0kts
26-Mar-20 08:13 36.334936 -97.909371 213 1293ft 0kts
26-Mar-20 08:14 36.334936 -97.909371 213 1293ft 0kts
26-Mar-20 08:20 36.346971 -97.909990 216 1279ft 0kts
26-Mar-20 08:21 36.346971 -97.909990 217 1279ft 0kts
26-Mar-20 08:22 36.346969 -97.909992 210 1279ft 0kts
26-Mar-20 08:23 36.346903 -97.909819 260 1279ft 0kts

Navigation Log

Ident Type
Flight plan parsing failed, navigation log unavailable